To NAV CANADA Home Page Login to a new session Search on AWWS site Feedback and Comments Disclaimer Vers la page française équivalente Tips FAQ What's new on the site To the Forecasts and Observations / NOTAM section To "File a Flight Plan" website Publications and other links Update of the User's profile FIC Telephone Numbers My Weather Data Folder Route Weather Data Regional Weather Data Local Weather Data To the Forecasts and Observations / NOTAM section
Request Generated 09/26/2017 at 05:37:02 UTC . Weather information available at that time is displayed.

METAR/TAF

CHATHAM-KENT/ON    (show WxCam)

METAR CYCK 260500Z AUTO 14006KT 9SM CLR 22/20 A2999 RMK SLP152
DENSITY ALT 1500FT=
METAR CYCK 260400Z AUTO 13005KT 9SM CLR 23/21 A2999 RMK SLP152
DENSITY ALT 1600FT=
SPECI CYCK 260344Z AUTO 13004KT 9SM SCT210 22/21 A2999 RMK SLP153
DENSITY ALT 1500FT=
SPECI CYCK 260319Z AUTO 14005KT 8SM SCT210 BKN240 23/21 A2999 RMK
SLP154 DENSITY ALT 1600FT=
METAR CYCK 260300Z AUTO 14005KT 9SM SCT240 23/21 A2999 RMK SLP154
DENSITY ALT 1600FT=

CYCK - No TAF is issued for this station

Your time UTC time
Weather data provided by Environment Canada and NAV CANADA